Time;durP1;ratioP1;P1;durP2;ratioP2;P2;SDS_P1;SDS_P2;PMS_P1;PMS_P2;Temp;Humidity;BMP_temperature;BMP_pressure;BME280_temperature;BME280_humidity;BME280_pressure;Samples;Min_cycle;Max_cycle;Signal;HPM_P1;HPM_P2
2022/06/30 00:02:22;;;;;;;8.00;4.53;;;;;;;12.98;59.11;100333.00;6157989;23;20017;-78
2022/06/30 00:04:48;;;;;;;13.20;5.03;;;;;;;12.93;59.14;100330.44;6155686;23;20017;-81
2022/06/30 00:07:15;;;;;;;9.38;5.03;;;;;;;12.85;59.20;100314.00;6153611;23;20017;-80
2022/06/30 00:09:41;;;;;;;9.15;5.25;;;;;;;12.90;59.62;100327.00;6155626;23;20351;-80
2022/06/30 00:12:08;;;;;;;12.40;4.90;;;;;;;12.85;59.63;100331.38;6178239;23;20021;-80
2022/06/30 00:14:34;;;;;;;11.90;4.80;;;;;;;12.82;59.71;100321.84;6152852;23;20021;-79
2022/06/30 00:17:00;;;;;;;11.93;4.22;;;;;;;12.70;59.89;100309.78;6153166;23;20021;-80
2022/06/30 00:19:26;;;;;;;13.43;5.25;;;;;;;12.65;59.62;100308.94;6155270;23;20091;-80
2022/06/30 00:21:52;;;;;;;8.85;4.30;;;;;;;12.70;59.87;100316.72;6158413;23;20028;-81
2022/06/30 00:24:18;;;;;;;8.60;4.70;;;;;;;12.63;59.85;100302.88;6157301;23;20033;-80
2022/06/30 00:26:44;;;;;;;10.32;4.78;;;;;;;12.65;59.60;100304.59;6179580;23;20017;-80
2022/06/30 00:29:11;;;;;;;10.95;4.53;;;;;;;12.65;59.81;100312.44;6108168;23;20414;-80
2022/06/30 00:31:38;;;;;;;10.57;4.63;;;;;;;12.67;59.69;100316.78;6157848;23;20024;-79
2022/06/30 00:34:04;;;;;;;8.80;4.57;;;;;;;12.64;59.30;100322.88;6154695;23;20025;-79
2022/06/30 00:36:30;;;;;;;12.50;4.30;;;;;;;12.60;60.24;100313.34;6128845;23;20021;-78
2022/06/30 00:38:56;;;;;;;8.63;4.47;;;;;;;12.64;59.88;100323.75;6129592;23;20075;-79
2022/06/30 00:41:22;;;;;;;10.30;4.63;;;;;;;12.63;60.07;100319.41;6133579;23;20370;-79
2022/06/30 00:43:49;;;;;;;11.15;4.70;;;;;;;12.51;60.26;100298.63;6172137;23;20022;-80
2022/06/30 00:46:16;;;;;;;15.02;5.22;;;;;;;12.55;60.23;100304.72;6171078;23;20017;-80
2022/06/30 00:48:43;;;;;;;8.38;4.68;;;;;;;12.61;60.10;100315.06;6162305;23;20017;-80
2022/06/30 00:51:10;;;;;;;11.88;5.15;;;;;;;12.57;60.67;100309.03;6158138;23;20037;-78
2022/06/30 00:53:38;;;;;;;10.50;4.55;;;;;;;12.53;60.38;100293.41;6153612;23;20017;-79
2022/06/30 00:56:06;;;;;;;10.45;5.30;;;;;;;12.47;60.36;100284.75;6152821;23;20026;-78
2022/06/30 00:58:38;;;;;;;8.98;5.10;;;;;;;12.54;60.68;100301.22;6158958;23;20324;-78
2022/06/30 01:01:07;;;;;;;18.02;5.28;;;;;;;12.48;60.58;100290.81;6159469;23;20040;-81
2022/06/30 01:03:34;;;;;;;12.68;4.80;;;;;;;12.56;60.33;100307.28;6175669;23;20002;-79
2022/06/30 01:06:05;;;;;;;7.25;4.72;;;;;;;12.54;60.72;100306.44;6177494;23;20080;-78
2022/06/30 01:08:32;;;;;;;;;;;;;;;12.57;61.04;100301.19;6160701;23;20358;-79
2022/06/30 01:13:44;;;;;;;10.45;5.78;;;;;;;12.52;60.82;100286.47;6155860;23;20064;-80
2022/06/30 01:16:11;;;;;;;16.25;6.05;;;;;;;12.50;60.86;100281.22;6154187;23;20021;-79
2022/06/30 01:18:37;;;;;;;19.20;5.45;;;;;;;12.54;60.97;100285.56;6152057;23;20452;-79
2022/06/30 01:21:03;;;;;;;11.85;5.25;;;;;;;12.62;60.68;100299.41;6151695;23;20550;-80
2022/06/30 01:23:30;;;;;;;10.60;5.00;;;;;;;12.66;61.06;100300.25;6152061;23;20069;-78
2022/06/30 01:25:56;;;;;;;12.70;5.15;;;;;;;12.65;61.22;100295.91;6152414;23;20025;-82
2022/06/30 01:28:22;;;;;;;9.20;5.25;;;;;;;12.65;61.20;100290.66;6177084;23;20478;-78
2022/06/30 01:30:48;;;;;;;12.38;5.55;;;;;;;12.70;61.23;100290.63;6153683;23;20477;-80
2022/06/30 01:33:14;;;;;;;10.27;5.60;;;;;;;12.67;61.11;100288.06;6152952;23;20021;-78
2022/06/30 01:35:40;;;;;;;11.75;5.60;;;;;;;12.73;61.06;100286.25;6156826;23;20048;-80
2022/06/30 01:38:07;;;;;;;13.25;5.50;;;;;;;12.77;61.20;100293.19;6161374;23;20280;-78
2022/06/30 01:40:35;;;;;;;9.05;5.68;;;;;;;12.77;60.85;100277.50;6162147;23;20028;-79
2022/06/30 01:43:05;;;;;;;11.52;5.18;;;;;;;12.78;61.04;100280.97;6157039;23;20025;-80
2022/06/30 01:45:31;;;;;;;9.10;5.15;;;;;;;12.83;60.92;100281.81;6154028;23;20017;-81
2022/06/30 01:47:58;;;;;;;8.52;5.05;;;;;;;12.86;60.69;100270.44;6127732;23;20041;-79
2022/06/30 01:50:27;;;;;;;10.38;5.40;;;;;;;12.94;60.78;100284.28;6127746;23;20024;-80
2022/06/30 01:52:53;;;;;;;10.52;5.55;;;;;;;13.00;60.50;100281.63;6152152;23;20526;-80
2022/06/30 01:55:20;;;;;;;12.30;5.47;;;;;;;13.01;60.73;100272.03;6153742;23;20025;-80
2022/06/30 01:57:46;;;;;;;14.63;5.30;;;;;;;13.14;60.92;100281.44;6152575;23;20021;-81
2022/06/30 02:00:16;;;;;;;12.95;5.22;;;;;;;13.23;60.74;100275.25;6150971;23;20064;-80
2022/06/30 02:02:43;;;;;;;13.48;5.50;;;;;;;13.24;60.66;100267.38;6151767;23;20093;-80
2022/06/30 02:05:10;;;;;;;15.05;6.07;;;;;;;13.33;60.93;100271.63;6153002;23;20050;-78
2022/06/30 02:07:39;;;;;;;13.23;5.65;;;;;;;13.39;60.58;100266.34;6153667;23;20029;-79
2022/06/30 02:10:07;;;;;;;9.90;5.57;;;;;;;13.48;60.81;100257.53;6151805;23;20013;-78
2022/06/30 02:12:46;;;;;;;13.18;6.18;;;;;;;13.55;60.66;100261.81;6127232;23;20037;-80
2022/06/30 02:15:33;;;;;;;12.65;5.68;;;;;;;13.55;60.60;100242.63;6151245;23;20451;-77
2022/06/30 02:18:02;;;;;;;10.20;5.82;;;;;;;13.74;60.43;100258.94;6102885;23;20096;-79
2022/06/30 02:20:29;;;;;;;12.32;5.90;;;;;;;13.75;60.67;100250.19;6159038;23;20096;-79
2022/06/30 02:22:57;;;;;;;10.55;6.00;;;;;;;13.86;60.65;100256.13;6153655;23;20018;-78
2022/06/30 02:25:26;;;;;;;33.33;24.65;;;;;;;13.86;60.62;100245.66;6128875;23;20067;-79
2022/06/30 02:27:53;;;;;;;11.15;6.65;;;;;;;14.04;60.78;100253.25;6153230;23;20027;-79
2022/06/30 02:30:20;;;;;;;9.65;5.85;;;;;;;14.10;60.77;100256.63;6131807;23;20016;-80
2022/06/30 02:32:47;;;;;;;9.98;6.40;;;;;;;14.22;60.37;100254.69;6128493;23;20367;-79
2022/06/30 02:35:13;;;;;;;10.02;6.05;;;;;;;14.36;60.45;100259.69;6135367;23;20109;-78
2022/06/30 02:37:41;;;;;;;11.05;6.03;;;;;;;14.34;60.31;100241.41;6178554;23;20017;-79
2022/06/30 02:40:08;;;;;;;16.50;6.15;;;;;;;14.46;60.22;100245.56;6180155;23;20021;-80
2022/06/30 02:42:34;;;;;;;11.57;5.32;;;;;;;14.68;60.15;100259.13;6171712;23;20021;-80
2022/06/30 02:45:01;;;;;;;8.23;6.00;;;;;;;14.83;59.97;100262.38;6163649;23;20045;-80
2022/06/30 02:47:35;;;;;;;14.10;6.18;;;;;;;14.94;59.87;100262.16;6161557;23;20021;-80
2022/06/30 02:50:05;;;;;;;;;;;;;;;15.04;59.78;100254.09;6156779;23;20009;-79
2022/06/30 02:52:33;;;;;;;17.00;6.10;;;;;;;15.08;59.54;100246.19;6154838;23;19936;-79
2022/06/30 02:54:59;;;;;;;16.38;6.07;;;;;;;15.15;59.44;100235.53;6129869;23;20021;-79
2022/06/30 02:57:26;;;;;;;14.32;6.43;;;;;;;15.33;59.44;100259.63;6155738;23;20091;-80
2022/06/30 02:59:53;;;;;;;12.27;6.47;;;;;;;15.46;59.49;100254.97;6157031;23;20027;-81
2022/06/30 03:02:19;;;;;;;13.32;6.40;;;;;;;15.63;59.22;100259.84;6132054;23;20023;-79
2022/06/30 03:04:45;;;;;;;19.95;7.28;;;;;;;15.71;59.08;100249.19;6156435;23;20040;-80
2022/06/30 03:07:11;;;;;;;17.23;6.97;;;;;;;15.87;58.84;100253.19;6158357;23;20017;-79
2022/06/30 03:09:38;;;;;;;15.20;7.18;;;;;;;16.05;59.00;100253.66;6156129;23;20040;-80
2022/06/30 03:12:04;;;;;;;15.25;7.47;;;;;;;16.15;58.37;100239.41;6131404;23;20013;-79
2022/06/30 03:14:30;;;;;;;18.42;7.72;;;;;;;16.34;58.16;100244.19;6155975;23;20395;-79
2022/06/30 03:16:56;;;;;;;17.52;7.70;;;;;;;16.53;57.73;100252.47;6157328;23;20017;-81
2022/06/30 03:19:22;;;;;;;20.65;9.02;;;;;;;16.65;57.46;100257.38;6154640;23;20021;-79
2022/06/30 03:21:49;;;;;;;14.35;8.25;;;;;;;16.77;57.55;100247.47;6153990;23;20067;-81
2022/06/30 03:24:15;;;;;;;23.25;8.80;;;;;;;16.99;57.17;100248.59;6158235;23;20041;-78
2022/06/30 03:26:41;;;;;;;17.98;9.20;;;;;;;17.08;56.98;100225.59;6153837;23;20013;-80
2022/06/30 03:29:07;;;;;;;16.48;8.65;;;;;;;17.26;56.74;100230.28;6129175;23;20085;-78
2022/06/30 03:31:33;;;;;;;17.73;8.15;;;;;;;17.51;56.46;100245.34;6154873;23;20052;-79
2022/06/30 03:33:59;;;;;;;19.10;8.77;;;;;;;17.63;56.87;100228.31;6128836;23;20108;-79
2022/06/30 03:36:25;;;;;;;17.25;10.10;;;;;;;17.79;56.77;100222.56;6155287;23;20067;-80
2022/06/30 03:38:51;;;;;;;21.40;8.55;;;;;;;17.95;57.01;100228.19;6128675;23;20018;-80
2022/06/30 03:41:17;;;;;;;13.15;8.55;;;;;;;18.14;57.01;100228.47;6153392;23;20052;-81
2022/06/30 03:43:43;;;;;;;20.05;9.25;;;;;;;18.39;56.46;100228.50;6154643;23;20017;-80
2022/06/30 03:46:09;;;;;;;15.45;8.40;;;;;;;18.61;55.63;100226.00;6156062;23;20427;-78
2022/06/30 03:48:36;;;;;;;17.13;8.30;;;;;;;18.76;54.88;100226.34;6131373;23;20020;-80
2022/06/30 03:51:03;;;;;;;14.15;7.32;;;;;;;18.91;54.18;100233.69;6189172;23;20047;-78
2022/06/30 03:53:29;;;;;;;8.60;5.57;;;;;;;19.13;52.97;100232.06;6151719;23;20021;-79
2022/06/30 03:55:57;;;;;;;8.77;6.28;;;;;;;19.28;51.82;100231.47;6162981;23;20456;-80
2022/06/30 03:58:23;;;;;;;12.30;5.50;;;;;;;19.41;50.53;100232.75;6159023;23;20024;-80
2022/06/30 04:00:49;;;;;;;12.65;5.57;;;;;;;19.63;49.53;100238.94;6158743;23;20104;-79
2022/06/30 04:03:15;;;;;;;9.52;5.10;;;;;;;19.71;48.60;100229.78;6153972;23;20017;-79
2022/06/30 04:05:41;;;;;;;12.38;5.63;;;;;;;19.92;47.87;100234.31;6155550;23;20027;-79
2022/06/30 04:08:07;;;;;;;14.95;5.97;;;;;;;20.01;46.92;100226.00;6154296;23;20505;-80
2022/06/30 04:10:34;;;;;;;13.77;6.15;;;;;;;20.15;46.47;100239.50;6163343;23;20017;-80
2022/06/30 04:13:00;;;;;;;10.95;5.70;;;;;;;20.14;45.69;100219.28;6178260;23;20022;-80
2022/06/30 04:15:28;;;;;;;14.45;6.00;;;;;;;20.17;45.62;100229.72;6168599;23;20022;-80
2022/06/30 04:17:54;;;;;;;13.60;5.82;;;;;;;20.23;45.23;100233.03;6155791;23;20072;-79
2022/06/30 04:20:21;;;;;;;13.45;6.18;;;;;;;20.34;45.18;100220.22;6152414;23;20024;-81
2022/06/30 04:22:50;;;;;;;9.25;5.90;;;;;;;20.61;45.17;100225.25;6154824;23;20024;-81
2022/06/30 04:25:17;;;;;;;12.90;5.80;;;;;;;20.86;44.80;100226.78;6129726;23;20021;-78
2022/06/30 04:27:45;;;;;;;10.57;6.38;;;;;;;21.17;44.70;100221.00;6155452;23;20040;-81
2022/06/30 04:30:13;;;;;;;15.43;6.55;;;;;;;21.28;44.67;100220.50;6153696;23;20522;-80
2022/06/30 04:32:40;;;;;;;11.93;6.03;;;;;;;21.51;44.49;100218.53;6157363;23;20459;-79
2022/06/30 04:35:12;;;;;;;15.27;6.68;;;;;;;21.77;44.18;100212.00;6157087;23;20021;-80
2022/06/30 04:37:39;;;;;;;13.07;6.80;;;;;;;21.98;43.96;100217.16;6131122;23;20021;-79
2022/06/30 04:42:50;;;;;;;20.02;7.18;;;;;;;22.39;43.43;100210.72;6153765;23;20032;-80
2022/06/30 04:45:16;;;;;;;11.55;7.20;;;;;;;22.70;42.59;100212.63;6128308;23;20037;-80
2022/06/30 04:47:42;;;;;;;16.70;6.75;;;;;;;22.93;42.57;100204.38;6154887;23;20021;-81
2022/06/30 04:50:09;;;;;;;13.98;7.90;;;;;;;23.13;42.07;100193.53;6157922;23;20020;-79
2022/06/30 04:52:35;;;;;;;12.75;7.60;;;;;;;23.31;42.06;100198.78;6157700;23;20024;-79
2022/06/30 04:55:02;;;;;;;14.32;7.72;;;;;;;23.44;41.81;100198.94;6156418;23;20490;-81
2022/06/30 04:57:29;;;;;;;14.35;7.47;;;;;;;23.61;41.32;100195.34;6155381;23;20337;-79
2022/06/30 04:59:55;;;;;;;8.73;4.60;;;;;;;23.60;41.08;100188.31;6152886;23;20022;-81
2022/06/30 05:02:21;;;;;;;4.68;2.95;;;;;;;23.77;40.18;100203.28;6157980;23;20025;-77
2022/06/30 05:04:47;;;;;;;8.90;3.35;;;;;;;23.79;39.47;100193.44;6155154;23;20017;-81
2022/06/30 05:07:13;;;;;;;5.88;2.50;;;;;;;23.94;38.63;100196.13;6159138;23;20022;-78
2022/06/30 05:09:39;;;;;;;7.10;2.60;;;;;;;24.00;37.99;100191.31;6171907;23;20013;-79
2022/06/30 05:12:07;;;;;;;6.93;2.88;;;;;;;24.10;37.66;100196.94;6148372;23;20037;-79
2022/06/30 05:14:33;;;;;;;6.80;2.22;;;;;;;24.17;37.15;100202.75;6156750;23;20021;-78
2022/06/30 05:16:59;;;;;;;5.22;2.50;;;;;;;24.15;36.79;100188.72;6152495;23;20028;-79
2022/06/30 05:19:25;;;;;;;5.72;2.22;;;;;;;24.18;36.88;100186.72;6128425;23;20028;-79
2022/06/30 05:21:51;;;;;;;6.38;2.63;;;;;;;24.34;36.28;100184.00;6153698;23;20017;-80
2022/06/30 05:27:02;;;;;;;4.90;1.65;;;;;;;24.86;35.19;100173.78;6167854;23;20028;-80
2022/06/30 05:29:28;;;;;;;5.45;1.60;;;;;;;24.96;34.78;100174.91;6176636;23;20116;-80
2022/06/30 05:31:54;;;;;;;9.07;6.85;;;;;;;25.05;34.17;100177.94;6160979;23;20021;-80
2022/06/30 05:34:20;;;;;;;9.05;5.45;;;;;;;25.03;33.78;100175.38;6155856;23;20141;-78
2022/06/30 05:36:46;;;;;;;14.20;10.00;;;;;;;25.04;33.92;100174.44;6155980;23;20017;-78
2022/06/30 05:39:12;;;;;;;7.65;4.55;;;;;;;25.17;33.40;100169.16;6155150;23;20024;-79
2022/06/30 05:41:39;;;;;;;8.20;5.20;;;;;;;25.24;33.31;100178.47;6155104;23;20021;-81
2022/06/30 05:44:04;;;;;;;10.73;2.97;;;;;;;25.29;32.83;100166.66;6162297;23;20021;-80
2022/06/30 05:46:30;;;;;;;3.40;2.00;;;;;;;25.40;32.82;100164.16;6178087;23;20029;-79
2022/06/30 05:48:58;;;;;;;5.30;1.77;;;;;;;25.40;32.39;100164.16;6171289;23;20013;-80
2022/06/30 05:51:24;;;;;;;4.90;1.92;;;;;;;25.60;31.73;100167.34;6156955;23;20040;-78
2022/06/30 05:53:50;;;;;;;4.53;3.00;;;;;;;25.99;31.46;100152.31;6152804;23;20021;-80
2022/06/30 05:56:17;;;;;;;25.30;18.77;;;;;;;27.27;30.91;100163.84;6153244;23;20525;-80
2022/06/30 05:58:43;;;;;;;23.83;16.95;;;;;;;29.62;29.25;100160.00;6152686;23;20402;-80
2022/06/30 06:01:09;;;;;;;11.43;5.10;;;;;;;31.91;27.33;100160.59;6127444;23;20025;-81
2022/06/30 06:03:35;;;;;;;7.07;5.13;;;;;;;33.92;24.61;100151.06;6127957;23;20013;-81
2022/06/30 06:06:01;;;;;;;29.48;24.98;;;;;;;35.74;22.57;100138.22;6128623;23;20028;-79
2022/06/30 06:08:27;;;;;;;2.40;1.90;;;;;;;37.12;21.49;100137.31;6153395;23;20017;-81
2022/06/30 06:10:53;;;;;;;3.65;2.10;;;;;;;38.61;19.98;100144.13;6158460;23;20021;-80
2022/06/30 06:13:19;;;;;;;3.47;1.75;;;;;;;39.89;18.52;100140.84;6153998;23;20427;-80
2022/06/30 06:15:46;;;;;;;6.78;1.75;;;;;;;41.08;16.87;100138.97;6156934;23;20017;-79
2022/06/30 06:18:12;;;;;;;2.55;1.33;;;;;;;42.14;16.17;100144.66;6152606;23;20017;-80
2022/06/30 06:20:38;;;;;;;4.05;1.40;;;;;;;43.05;14.67;100141.16;6152427;23;20013;-79
2022/06/30 06:23:04;;;;;;;5.07;1.40;;;;;;;43.57;13.52;100138.25;6128616;23;20028;-79
2022/06/30 06:25:30;;;;;;;2.95;1.40;;;;;;;44.17;13.01;100130.56;6154640;23;20319;-79
2022/06/30 06:30:40;;;;;;;10.30;4.75;;;;;;;45.47;11.67;100135.78;6153041;23;20021;-80
2022/06/30 06:33:06;;;;;;;7.72;5.10;;;;;;;45.95;11.18;100131.13;6176595;23;20045;-79
2022/06/30 06:35:32;;;;;;;4.97;2.83;;;;;;;46.41;10.73;100133.22;6154121;23;20021;-79
2022/06/30 06:37:58;;;;;;;13.00;11.70;;;;;;;46.95;10.11;100129.34;6177630;23;20021;-80
2022/06/30 06:40:25;;;;;;;10.68;7.43;;;;;;;47.20;9.19;100139.97;6153261;23;20021;-81
2022/06/30 06:42:51;;;;;;;7.55;6.25;;;;;;;47.36;9.12;100133.63;6153307;23;20498;-79
2022/06/30 06:45:17;;;;;;;5.57;3.08;;;;;;;47.66;8.90;100129.72;6154028;23;20017;-79
2022/06/30 06:47:44;;;;;;;4.45;2.22;;;;;;;47.71;8.78;100114.34;6153660;23;20021;-79
2022/06/30 06:50:10;;;;;;;10.95;9.85;;;;;;;47.84;8.58;100129.69;6152735;23;20041;-79
2022/06/30 06:52:36;;;;;;;6.50;4.63;;;;;;;48.43;8.09;100134.63;6152699;23;20021;-79
2022/06/30 06:55:03;;;;;;;5.28;3.30;;;;;;;48.87;7.98;100122.69;6154551;23;20070;-79
2022/06/30 06:57:37;;;;;;;8.52;5.05;;;;;;;49.38;7.68;100119.53;6129029;23;20018;-79
2022/06/30 07:00:07;;;;;;;3.65;2.03;;;;;;;49.76;7.25;100110.41;6154651;23;20352;-77
2022/06/30 07:02:34;;;;;;;7.47;5.57;;;;;;;50.10;6.77;100102.56;6159399;23;20014;-79
2022/06/30 07:05:00;;;;;;;6.38;5.38;;;;;;;50.31;6.32;100111.81;6154916;23;20341;-79
2022/06/30 07:07:26;;;;;;;5.18;4.32;;;;;;;50.04;6.55;100104.47;6176839;23;20020;-79
2022/06/30 07:09:52;;;;;;;5.38;3.10;;;;;;;50.40;6.23;100100.22;6151630;23;20083;-81
2022/06/30 07:12:18;;;;;;;6.28;2.47;;;;;;;50.72;6.40;100101.94;6153104;23;20076;-79
2022/06/30 07:14:44;;;;;;;2.67;1.70;;;;;;;50.67;6.15;100099.16;6127355;23;20546;-79
2022/06/30 07:17:10;;;;;;;4.00;2.95;;;;;;;50.84;5.62;100104.44;6152877;23;20040;-79
2022/06/30 07:19:36;;;;;;;4.50;2.13;;;;;;;51.12;5.56;100107.81;6142019;23;20073;-79
2022/06/30 07:22:03;;;;;;;4.93;3.50;;;;;;;51.65;5.49;100111.06;6176174;23;20049;-81
2022/06/30 07:24:29;;;;;;;3.25;2.92;;;;;;;51.92;4.55;100106.31;6170518;23;20017;-80
2022/06/30 07:26:55;;;;;;;3.83;2.92;;;;;;;52.18;5.10;100101.47;6165624;23;20049;-79
2022/06/30 07:29:21;;;;;;;5.15;3.10;;;;;;;52.29;4.92;100113.38;6154986;23;20108;-81
2022/06/30 07:31:47;;;;;;;5.88;2.38;;;;;;;52.55;4.56;100108.47;6155526;23;20018;-80
2022/06/30 07:34:14;;;;;;;3.85;2.90;;;;;;;53.01;4.62;100103.75;6154229;23;20459;-81
2022/06/30 07:36:41;;;;;;;3.03;2.45;;;;;;;53.35;3.99;100113.16;6157707;23;20363;-80
2022/06/30 07:39:07;;;;;;;6.90;2.00;;;;;;;53.51;4.04;100109.13;6129948;23;20017;-80
2022/06/30 07:41:33;;;;;;;5.03;2.20;;;;;;;53.12;4.03;100110.03;6155709;23;20028;-79
2022/06/30 07:44:01;;;;;;;4.53;1.90;;;;;;;52.80;3.73;100108.63;6156795;23;20048;-80
2022/06/30 07:46:28;;;;;;;2.15;1.95;;;;;;;52.35;4.67;100098.38;6153508;23;20021;-78
2022/06/30 07:48:54;;;;;;;4.68;2.03;;;;;;;52.24;4.49;100091.16;6128425;23;20017;-80
2022/06/30 07:51:20;;;;;;;7.82;2.70;;;;;;;52.77;4.83;100104.47;6177645;23;20022;-81
2022/06/30 07:53:48;;;;;;;7.30;3.55;;;;;;;53.57;4.46;100104.34;6154960;23;20086;-80
2022/06/30 07:56:14;;;;;;;4.40;3.10;;;;;;;53.71;4.43;100107.25;6128440;23;20021;-80
2022/06/30 07:58:40;;;;;;;4.07;3.65;;;;;;;54.03;4.12;100103.81;6153216;23;20017;-79
2022/06/30 08:01:07;;;;;;;8.45;4.97;;;;;;;54.47;4.51;100096.25;6128870;23;20021;-79
2022/06/30 08:03:34;;;;;;;6.22;5.70;;;;;;;54.54;4.18;100078.34;6154688;23;20049;-80
2022/06/30 08:06:01;;;;;;;5.03;4.03;;;;;;;54.61;3.93;100093.56;6153338;23;20100;-79
2022/06/30 08:08:27;;;;;;;3.17;2.50;;;;;;;53.85;4.45;100088.72;6155098;23;20024;-80
2022/06/30 08:10:53;;;;;;;4.20;3.90;;;;;;;53.57;4.52;100091.25;6155638;23;20084;-79
2022/06/30 08:13:19;;;;;;;8.82;7.50;;;;;;;53.68;4.43;100074.50;6157032;23;20048;-80
2022/06/30 08:15:45;;;;;;;5.95;5.25;;;;;;;54.16;4.46;100073.59;6137836;23;20017;-79
2022/06/30 08:18:11;;;;;;;10.60;9.80;;;;;;;54.04;4.75;100076.81;6167741;23;20048;-79
2022/06/30 08:20:38;;;;;;;6.07;3.20;;;;;;;54.36;4.64;100064.16;6149390;23;20177;-79
2022/06/30 08:23:04;;;;;;;6.57;4.70;;;;;;;54.05;4.25;100059.84;6163348;23;20014;-79
2022/06/30 08:25:30;;;;;;;25.58;23.30;;;;;;;54.36;4.39;100061.38;6154894;23;20017;-80
2022/06/30 08:27:56;;;;;;;5.40;3.70;;;;;;;54.34;4.35;100069.19;6152210;23;20028;-79
2022/06/30 08:30:23;;;;;;;11.75;9.35;;;;;;;54.02;4.42;100048.47;6152453;23;20019;-79
2022/06/30 08:32:49;;;;;;;4.85;2.20;;;;;;;54.10;4.58;100049.75;6153958;23;20017;-78
2022/06/30 08:35:15;;;;;;;7.90;4.60;;;;;;;53.90;4.61;100052.50;6154560;23;20076;-77
2022/06/30 08:37:41;;;;;;;9.20;5.25;;;;;;;54.03;4.12;100052.91;6153148;23;20021;-79
2022/06/30 08:42:53;;;;;;;4.22;2.88;;;;;;;54.05;4.20;100045.94;6154704;23;20060;-80
2022/06/30 08:45:21;;;;;;;4.95;2.85;;;;;;;53.69;4.08;100040.81;6153428;23;20068;-80
2022/06/30 08:47:48;;;;;;;2.95;2.53;;;;;;;53.70;4.64;100041.66;6161671;23;20025;-80
2022/06/30 08:50:17;;;;;;;7.63;5.15;;;;;;;53.89;3.41;100036.13;6133215;23;20020;-80
2022/06/30 08:52:51;;;;;;;16.90;15.52;;;;;;;54.17;3.92;100033.53;6172781;23;20005;-80
2022/06/30 08:55:20;;;;;;;2.90;2.50;;;;;;;54.05;4.23;100028.41;6177078;23;20030;-79
2022/06/30 08:57:47;;;;;;;3.17;2.88;;;;;;;53.31;4.17;100043.47;6159473;23;20100;-81
2022/06/30 09:00:17;;;;;;;11.13;9.38;;;;;;;53.31;4.03;100044.28;6156772;23;20021;-82
2022/06/30 09:02:43;;;;;;;7.75;7.07;;;;;;;52.81;4.60;100029.78;6154393;23;20549;-80
2022/06/30 09:05:11;;;;;;;6.32;5.82;;;;;;;53.00;3.78;100035.44;6154027;23;20052;-81
2022/06/30 09:07:54;;;;;;;6.38;5.70;;;;;;;52.98;4.56;100015.47;6152664;23;20048;-83
2022/06/30 09:10:22;;;;;;;2.83;2.38;;;;;;;52.72;4.33;100024.03;6152999;23;20025;-81
2022/06/30 09:13:02;;;;;;;4.00;3.63;;;;;;;52.86;4.54;100026.94;6152800;23;20038;-81
2022/06/30 09:15:37;;;;;;;3.92;3.63;;;;;;;53.41;4.20;100012.78;6178136;23;20040;-81
2022/06/30 09:18:04;;;;;;;3.15;2.80;;;;;;;53.74;4.29;100015.75;6177165;23;20098;-80
2022/06/30 09:20:35;;;;;;;3.28;2.92;;;;;;;53.54;4.32;100014.00;6152499;23;20079;-80
2022/06/30 09:23:24;;;;;;;3.55;2.60;;;;;;;53.48;3.88;100028.28;6154470;23;20018;-78
2022/06/30 09:25:51;;;;;;;;;;;;;;;53.08;4.45;100028.44;6129330;23;20021;-81
2022/06/30 09:28:54;;;;;;;12.32;11.23;;;;;;;53.40;4.39;100027.84;6154514;23;19955;-82
2022/06/30 09:31:42;;;;;;;6.45;3.00;;;;;;;53.01;3.94;100023.22;6128542;23;20025;-80
2022/06/30 09:34:12;;;;;;;;;;;;;;;53.27;4.44;100022.97;6128485;23;20028;-82
2022/06/30 09:36:38;;;;;;;6.40;2.15;;;;;;;53.15;4.49;100015.84;6128513;23;19948;-80
2022/06/30 09:39:09;;;;;;;2.90;2.08;;;;;;;52.91;4.39;100015.78;6159613;23;20475;-80
2022/06/30 09:41:42;;;;;;;10.88;9.75;;;;;;;52.57;4.64;100016.63;6154435;23;20017;-80
2022/06/30 09:44:25;;;;;;;6.03;2.75;;;;;;;52.43;4.42;100010.91;6160357;23;20017;-79
2022/06/30 09:47:10;;;;;;;5.43;2.50;;;;;;;52.19;4.30;100005.25;6156032;23;20025;-81
2022/06/30 09:49:46;;;;;;;7.70;5.60;;;;;;;52.21;4.34;100009.38;6154649;23;20014;-81
2022/06/30 09:52:23;;;;;;;4.57;2.90;;;;;;;52.25;4.50;100009.66;6178823;23;20024;-80
2022/06/30 09:54:56;;;;;;;4.68;2.30;;;;;;;51.97;4.39;100006.50;6154167;23;20112;-80
2022/06/30 09:57:25;;;;;;;2.47;2.00;;;;;;;51.32;4.83;99993.38;6129679;23;20025;-80
2022/06/30 10:00:15;;;;;;;3.03;1.80;;;;;;;51.63;4.80;99998.84;6129564;23;20018;-81
2022/06/30 10:02:52;;;;;;;2.67;1.85;;;;;;;51.04;4.79;99988.19;6130805;23;20371;-79
2022/06/30 10:05:19;;;;;;;4.78;2.28;;;;;;;51.53;5.01;99994.97;6155626;23;20013;-81
2022/06/30 10:07:46;;;;;;;8.52;2.75;;;;;;;51.75;4.95;99996.59;6181184;23;20506;-79
2022/06/30 10:10:16;;;;;;;5.45;2.20;;;;;;;51.33;5.00;99983.97;6159568;23;20018;-79
2022/06/30 10:12:45;;;;;;;5.47;2.38;;;;;;;51.34;4.76;99980.09;6195140;23;20017;-80
2022/06/30 10:15:13;;;;;;;6.80;2.40;;;;;;;50.91;5.21;99986.00;6162361;23;20028;-80
2022/06/30 10:17:52;;;;;;;3.65;1.98;;;;;;;51.07;4.88;99975.72;6157361;23;20451;-80
2022/06/30 10:20:20;;;;;;;2.17;1.75;;;;;;;51.17;4.98;99980.41;6131999;23;20021;-79
2022/06/30 10:22:48;;;;;;;6.28;2.03;;;;;;;50.86;4.74;99972.16;6157923;23;20109;-81
2022/06/30 10:25:16;;;;;;;5.85;1.67;;;;;;;50.27;5.20;99985.41;6139948;23;20479;-79
2022/06/30 10:27:49;;;;;;;4.43;1.70;;;;;;;49.43;5.18;99975.16;6178254;23;20083;-81
2022/06/30 10:30:21;;;;;;;1.63;1.40;;;;;;;47.43;5.69;99976.50;6167207;23;20016;-80
2022/06/30 10:33:03;;;;;;;6.25;1.77;;;;;;;44.55;6.55;99954.00;6158533;23;20044;-78
2022/06/30 10:35:44;;;;;;;3.55;1.67;;;;;;;42.20;8.23;99965.34;6181042;23;20017;-79
2022/06/30 10:38:23;;;;;;;4.57;1.60;;;;;;;40.50;8.47;99976.63;6156600;23;20455;-79
2022/06/30 10:41:07;;;;;;;3.20;1.77;;;;;;;39.18;9.73;99960.22;6155691;23;20040;-77
2022/06/30 10:43:34;;;;;;;7.85;1.50;;;;;;;37.99;10.49;99970.50;6179498;23;20017;-78
2022/06/30 10:46:06;;;;;;;1.88;1.60;;;;;;;37.15;10.58;99975.09;6156169;23;20017;-80
2022/06/30 10:49:36;;;;;;;4.45;1.80;;;;;;;35.99;12.03;99969.56;6179995;23;20022;-79
2022/06/30 10:52:53;;;;;;;4.93;1.42;;;;;;;34.88;12.61;99952.97;6122996;23;20021;-79
2022/06/30 10:55:19;;;;;;;2.88;1.50;;;;;;;34.68;13.14;99985.72;6075111;23;20026;-80
2022/06/30 10:58:07;;;;;;;4.43;1.42;;;;;;;34.20;13.53;99972.75;6148409;23;20017;-82
2022/06/30 11:00:56;;;;;;;2.78;1.70;;;;;;;33.64;13.71;99972.28;6155463;23;20358;-78
2022/06/30 11:03:29;;;;;;;3.10;1.33;;;;;;;33.21;14.35;99966.78;6134136;23;20022;-80
2022/06/30 11:06:05;;;;;;;4.13;1.10;;;;;;;32.88;14.27;99971.91;6160485;23;20100;-82
2022/06/30 11:08:39;;;;;;;2.92;1.40;;;;;;;32.51;14.89;99967.47;6152415;23;20006;-81
2022/06/30 11:11:23;;;;;;;2.70;1.40;;;;;;;32.07;15.20;99960.91;6169625;23;20025;-80
2022/06/30 11:14:10;;;;;;;2.78;1.60;;;;;;;31.77;16.02;99968.25;6183994;23;20522;-80
2022/06/30 11:16:38;;;;;;;5.32;1.60;;;;;;;31.52;16.29;99959.81;6102172;23;20359;-78
2022/06/30 11:19:16;;;;;;;1.45;1.30;;;;;;;31.18;16.18;99968.38;6131557;23;20021;-80
2022/06/30 11:21:44;;;;;;;5.38;1.58;;;;;;;31.05;16.75;99967.78;6181408;23;20431;-79
2022/06/30 11:24:12;;;;;;;6.00;2.00;;;;;;;30.87;17.06;99952.41;6157504;23;20021;-80
2022/06/30 11:29:28;;;;;;;3.50;1.55;;;;;;;30.62;17.38;99948.44;6154376;23;20104;-78
2022/06/30 11:32:05;;;;;;;5.28;1.60;;;;;;;30.50;17.53;99947.69;6154165;23;20104;-81
2022/06/30 11:34:36;;;;;;;3.03;1.60;;;;;;;30.35;17.44;99964.19;6156276;23;20021;-80
2022/06/30 11:37:02;;;;;;;6.68;1.70;;;;;;;29.89;18.10;99910.09;6156004;23;20105;-78
2022/06/30 11:39:28;;;;;;;4.28;1.35;;;;;;;30.09;18.20;99954.94;6129651;23;20060;-78
2022/06/30 11:41:55;;;;;;;2.20;1.40;;;;;;;29.86;18.05;99949.75;6154954;23;20017;-78
2022/06/30 11:44:35;;;;;;;3.53;1.70;;;;;;;29.73;17.95;99949.97;6154954;23;20028;-80
2022/06/30 11:47:04;;;;;;;;;;;;;;;29.52;18.29;99941.97;6156367;23;20018;-79
2022/06/30 11:49:47;;;;;;;5.07;1.70;;;;;;;29.35;18.51;99944.25;6129187;23;20333;-78
2022/06/30 11:52:15;;;;;;;3.63;2.33;;;;;;;29.15;18.56;99943.25;6153086;23;20013;-78